Time;durP1;ratioP1;P1;durP2;ratioP2;P2;SDS_P1;SDS_P2;PMS_P1;PMS_P2;Temp;Humidity;BMP_temperature;BMP_pressure;BME280_temperature;BME280_humidity;BME280_pressure;Samples;Min_cycle;Max_cycle;Signal;HPM_P1;HPM_P2
2023/06/18 00:01:39;;;;;;;5.80;3.40;;;;;;;;;;5073588;28;20214;-88
2023/06/18 00:04:07;;;;;;;3.97;3.30;;;;;;;;;;5072393;28;20209;-87
2023/06/18 00:06:34;;;;;;;3.47;3.17;;;;;;;;;;5074469;28;20277;-88
2023/06/18 00:09:01;;;;;;;3.47;3.17;;;;;;;;;;5073749;28;20195;-88
2023/06/18 00:11:28;;;;;;;3.50;3.20;;;;;;;;;;5077898;28;20202;-87
2023/06/18 00:13:57;;;;;;;3.97;3.22;;;;;;;;;;5075950;28;20218;-87
2023/06/18 00:16:24;;;;;;;4.90;3.65;;;;;;;;;;5073869;28;20289;-88
2023/06/18 00:18:52;;;;;;;3.67;3.35;;;;;;;;;;5078253;28;20203;-88
2023/06/18 00:21:20;;;;;;;3.88;3.55;;;;;;;;;;5072483;28;20198;-88
2023/06/18 00:23:47;;;;;;;5.43;3.53;;;;;;;;;;5073133;28;20207;-88
2023/06/18 00:26:14;;;;;;;4.20;3.67;;;;;;;;;;5072747;28;20201;-87
2023/06/18 00:28:42;;;;;;;3.70;3.50;;;;;;;;;;5073300;28;20213;-88
2023/06/18 00:31:11;;;;;;;4.45;3.53;;;;;;;;;;5070114;28;20211;-88
2023/06/18 00:33:38;;;;;;;4.75;3.80;;;;;;;;;;5071475;28;20225;-87
2023/06/18 00:36:07;;;;;;;3.60;3.30;;;;;;;;;;5071627;28;20256;-88
2023/06/18 00:38:35;;;;;;;3.42;3.13;;;;;;;;;;5074756;28;20211;-87
2023/06/18 00:41:02;;;;;;;4.03;3.72;;;;;;;;;;5050967;28;20214;-88
2023/06/18 00:43:30;;;;;;;3.67;3.38;;;;;;;;;;5074522;28;20207;-88
2023/06/18 00:46:00;;;;;;;3.55;3.30;;;;;;;;;;5074675;28;20274;-88
2023/06/18 00:48:31;;;;;;;3.70;3.40;;;;;;;;;;5073108;28;20202;-88
2023/06/18 00:50:58;;;;;;;5.95;4.05;;;;;;;;;;5071746;28;20280;-88
2023/06/18 00:53:26;;;;;;;4.38;3.92;;;;;;;;;;5072689;28;20229;-87
2023/06/18 00:55:53;;;;;;;5.55;4.07;;;;;;;;;;5069271;28;20187;-87
2023/06/18 00:58:23;;;;;;;4.75;3.97;;;;;;;;;;5068283;28;20190;-87
2023/06/18 01:00:50;;;;;;;4.40;3.80;;;;;;;;;;5071314;28;20199;-88
2023/06/18 01:03:20;;;;;;;4.80;3.63;;;;;;;;;;5076777;28;20218;-87
2023/06/18 01:05:50;;;;;;;3.88;3.50;;;;;;;;;;5081285;28;20207;-88
2023/06/18 01:08:17;;;;;;;3.45;3.15;;;;;;;;;;5073294;28;20206;-87
2023/06/18 01:10:45;;;;;;;4.80;3.65;;;;;;;;;;5071825;28;20294;-88
2023/06/18 01:13:13;;;;;;;5.60;3.67;;;;;;;;;;5072080;28;20281;-88
2023/06/18 01:15:40;;;;;;;3.30;3.10;;;;;;;;;;5066872;28;20202;-88
2023/06/18 01:18:08;;;;;;;4.53;3.53;;;;;;;;;;5067853;28;20198;-88
2023/06/18 01:20:40;;;;;;;4.47;3.25;;;;;;;;;;5073939;28;20293;-87
2023/06/18 01:23:14;;;;;;;3.78;3.47;;;;;;;;;;5058658;28;20247;-87
2023/06/18 01:25:43;;;;;;;4.13;3.83;;;;;;;;;;5071479;28;20191;-88
2023/06/18 01:28:11;;;;;;;3.60;3.30;;;;;;;;;;5075281;28;20203;-88
2023/06/18 01:30:39;;;;;;;4.72;3.78;;;;;;;;;;5074821;28;20299;-87
2023/06/18 01:33:12;;;;;;;3.83;3.53;;;;;;;;;;5077087;28;20198;-87
2023/06/18 01:35:39;;;;;;;3.75;3.38;;;;;;;;;;5076022;28;20210;-88
2023/06/18 01:38:18;;;;;;;3.90;3.47;;;;;;;;;;5075385;28;20213;-87
2023/06/18 01:40:48;;;;;;;3.63;3.33;;;;;;;;;;5076685;28;20195;-88
2023/06/18 01:43:20;;;;;;;4.15;3.10;;;;;;;;;;5074256;28;20237;-87
2023/06/18 01:45:49;;;;;;;4.80;3.55;;;;;;;;;;5073190;28;20201;-88
2023/06/18 01:48:19;;;;;;;3.95;3.50;;;;;;;;;;5073917;28;20206;-87
2023/06/18 01:50:49;;;;;;;4.50;3.50;;;;;;;;;;5072860;28;20203;-87
2023/06/18 01:53:21;;;;;;;4.10;3.40;;;;;;;;;;5059478;28;20191;-87
2023/06/18 01:55:49;;;;;;;3.35;3.05;;;;;;;;;;5079491;28;20320;-87
2023/06/18 01:58:16;;;;;;;3.65;3.38;;;;;;;;;;5057520;28;20248;-87
2023/06/18 02:00:44;;;;;;;4.63;3.30;;;;;;;;;;5075187;28;20198;-87
2023/06/18 02:03:11;;;;;;;4.03;3.72;;;;;;;;;;5057376;28;20198;-88
2023/06/18 02:05:38;;;;;;;4.30;3.20;;;;;;;;;;5075192;28;20284;-87
2023/06/18 02:08:06;;;;;;;4.05;3.50;;;;;;;;;;5073722;28;20282;-87
2023/06/18 02:10:34;;;;;;;3.80;3.50;;;;;;;;;;5076030;28;20214;-87
2023/06/18 02:13:01;;;;;;;3.75;3.40;;;;;;;;;;5068927;28;20266;-87
2023/06/18 02:15:29;;;;;;;3.60;3.30;;;;;;;;;;5080150;28;20226;-87
2023/06/18 02:17:56;;;;;;;3.97;3.40;;;;;;;;;;5075501;28;20273;-87
2023/06/18 02:20:23;;;;;;;5.15;3.70;;;;;;;;;;5058201;28;20195;-87
2023/06/18 02:22:52;;;;;;;4.20;3.30;;;;;;;;;;5075590;28;20257;-87
2023/06/18 02:25:28;;;;;;;3.88;3.58;;;;;;;;;;5073509;28;20221;-87
2023/06/18 02:27:57;;;;;;;3.88;3.50;;;;;;;;;;5075735;28;20210;-87
2023/06/18 02:30:25;;;;;;;3.85;3.55;;;;;;;;;;5071558;28;20219;-87
2023/06/18 02:32:54;;;;;;;4.15;3.70;;;;;;;;;;5083321;28;20278;-87
2023/06/18 02:35:21;;;;;;;3.70;3.50;;;;;;;;;;5075158;28;20199;-87
2023/06/18 02:37:48;;;;;;;4.20;3.83;;;;;;;;;;5075638;28;20225;-86
2023/06/18 02:40:16;;;;;;;3.50;3.30;;;;;;;;;;5074043;28;20205;-87
2023/06/18 02:42:48;;;;;;;3.47;3.17;;;;;;;;;;5073940;28;20198;-87
2023/06/18 02:45:17;;;;;;;4.53;3.47;;;;;;;;;;5073201;28;20194;-87
2023/06/18 02:47:45;;;;;;;3.88;3.58;;;;;;;;;;5081877;28;20285;-87
2023/06/18 02:50:12;;;;;;;4.10;3.50;;;;;;;;;;5074948;28;20209;-87
2023/06/18 02:52:40;;;;;;;4.55;3.53;;;;;;;;;;5058938;28;20206;-87
2023/06/18 02:55:07;;;;;;;3.53;3.22;;;;;;;;;;5076190;28;20238;-87
2023/06/18 02:57:35;;;;;;;4.95;3.63;;;;;;;;;;5076016;28;20206;-87
2023/06/18 03:00:05;;;;;;;4.00;3.60;;;;;;;;;;5075505;28;20285;-87
2023/06/18 03:02:34;;;;;;;3.88;3.58;;;;;;;;;;5078079;28;20214;-87
2023/06/18 03:05:01;;;;;;;6.93;3.90;;;;;;;;;;5077294;28;20297;-87
2023/06/18 03:07:28;;;;;;;4.10;3.70;;;;;;;;;;5074384;28;20215;-87
2023/06/18 03:09:56;;;;;;;4.35;3.67;;;;;;;;;;5075215;28;20206;-87
2023/06/18 03:12:24;;;;;;;3.75;3.45;;;;;;;;;;5065900;28;20290;-87
2023/06/18 03:14:51;;;;;;;3.97;3.67;;;;;;;;;;5074976;28;20221;-87
2023/06/18 03:17:19;;;;;;;3.88;3.45;;;;;;;;;;5073300;28;20274;-87
2023/06/18 03:19:47;;;;;;;4.00;3.70;;;;;;;;;;5074912;28;20214;-87
2023/06/18 03:22:15;;;;;;;3.72;3.42;;;;;;;;;;5075719;28;20267;-87
2023/06/18 03:24:42;;;;;;;4.00;3.58;;;;;;;;;;5079685;28;20209;-87
2023/06/18 03:27:09;;;;;;;4.03;3.28;;;;;;;;;;5074439;28;20281;-87
2023/06/18 03:29:37;;;;;;;3.70;3.40;;;;;;;;;;5082270;28;20308;-87
2023/06/18 03:32:04;;;;;;;5.38;3.70;;;;;;;;;;5067200;28;20202;-87
2023/06/18 03:34:33;;;;;;;3.90;3.60;;;;;;;;;;5074029;28;20221;-87
2023/06/18 03:37:02;;;;;;;3.95;3.65;;;;;;;;;;5078856;28;20198;-87
2023/06/18 03:39:29;;;;;;;4.32;3.67;;;;;;;;;;5074698;28;20198;-87
2023/06/18 03:41:56;;;;;;;3.97;3.55;;;;;;;;;;5073820;28;20282;-86
2023/06/18 03:44:24;;;;;;;4.20;3.80;;;;;;;;;;5069803;28;20195;-87
2023/06/18 03:46:51;;;;;;;3.80;3.50;;;;;;;;;;5073276;28;20199;-87
2023/06/18 03:49:19;;;;;;;3.75;3.47;;;;;;;;;;5072233;28;20206;-87
2023/06/18 03:51:46;;;;;;;4.00;3.63;;;;;;;;;;5067730;28;20191;-87
2023/06/18 03:54:15;;;;;;;3.78;3.47;;;;;;;;;;5073888;28;20328;-87
2023/06/18 03:56:42;;;;;;;3.70;3.38;;;;;;;;;;5073115;28;20266;-87
2023/06/18 03:59:09;;;;;;;3.95;3.50;;;;;;;;;;5076900;28;20199;-87
2023/06/18 04:01:37;;;;;;;4.07;3.70;;;;;;;;;;5073387;28;20199;-87
2023/06/18 04:04:04;;;;;;;4.10;3.80;;;;;;;;;;5084600;28;20195;-87
2023/06/18 04:06:32;;;;;;;4.20;3.90;;;;;;;;;;5074104;28;20203;-87
2023/06/18 04:08:59;;;;;;;4.55;3.70;;;;;;;;;;5072917;28;20195;-87
2023/06/18 04:11:28;;;;;;;3.92;3.63;;;;;;;;;;5075965;28;20206;-87
2023/06/18 04:13:55;;;;;;;4.00;3.70;;;;;;;;;;5077524;28;20277;-87
2023/06/18 04:16:23;;;;;;;3.92;3.63;;;;;;;;;;5072442;28;20289;-87
2023/06/18 04:18:50;;;;;;;4.35;3.85;;;;;;;;;;5073591;28;20199;-87
2023/06/18 04:21:17;;;;;;;4.88;3.85;;;;;;;;;;5072135;28;20191;-87
2023/06/18 04:23:44;;;;;;;3.83;3.45;;;;;;;;;;5074156;28;20201;-87
2023/06/18 04:26:12;;;;;;;4.00;3.70;;;;;;;;;;5072362;28;20230;-87
2023/06/18 04:28:40;;;;;;;4.32;3.92;;;;;;;;;;5076318;28;20194;-87
2023/06/18 04:31:08;;;;;;;4.10;3.80;;;;;;;;;;5069871;28;20206;-88
2023/06/18 04:33:36;;;;;;;4.18;3.80;;;;;;;;;;5071151;28;20199;-87
2023/06/18 04:36:03;;;;;;;4.03;3.78;;;;;;;;;;5070257;28;20230;-87
2023/06/18 04:38:30;;;;;;;4.47;4.05;;;;;;;;;;5073278;28;20213;-87
2023/06/18 04:40:58;;;;;;;3.83;3.58;;;;;;;;;;5084626;28;20198;-87
2023/06/18 04:43:25;;;;;;;4.75;3.60;;;;;;;;;;5071037;28;20207;-88
2023/06/18 04:45:54;;;;;;;4.95;3.85;;;;;;;;;;5079608;28;20207;-87
2023/06/18 04:48:22;;;;;;;5.90;4.00;;;;;;;;;;5072736;28;20211;-87
2023/06/18 04:50:49;;;;;;;4.47;4.07;;;;;;;;;;5081924;28;20202;-87
2023/06/18 04:53:17;;;;;;;4.13;3.83;;;;;;;;;;5080414;28;20190;-87
2023/06/18 04:55:45;;;;;;;4.45;4.07;;;;;;;;;;5077675;28;20222;-87
2023/06/18 04:58:13;;;;;;;4.15;3.83;;;;;;;;;;5073579;28;20225;-87
2023/06/18 05:00:40;;;;;;;5.45;4.30;;;;;;;;;;5072447;28;20273;-87
2023/06/18 05:03:09;;;;;;;4.70;4.30;;;;;;;;;;5069860;28;20279;-87
2023/06/18 05:05:36;;;;;;;4.45;4.13;;;;;;;;;;5072790;28;20203;-87
2023/06/18 05:08:04;;;;;;;4.43;3.70;;;;;;;;;;5071895;28;20197;-87
2023/06/18 05:10:33;;;;;;;4.50;4.18;;;;;;;;;;5072831;28;20199;-87
2023/06/18 05:13:03;;;;;;;3.78;3.47;;;;;;;;;;5076260;28;20205;-87
2023/06/18 05:15:30;;;;;;;4.15;3.85;;;;;;;;;;5075473;28;20230;-87
2023/06/18 05:17:57;;;;;;;5.80;3.72;;;;;;;;;;5076294;28;20241;-87
2023/06/18 05:20:27;;;;;;;3.90;3.63;;;;;;;;;;5072916;28;20209;-87
2023/06/18 05:22:54;;;;;;;4.22;3.83;;;;;;;;;;5071594;28;20203;-87
2023/06/18 05:25:21;;;;;;;5.00;4.60;;;;;;;;;;5073738;28;20203;-87
2023/06/18 05:27:48;;;;;;;4.22;3.92;;;;;;;;;;5070499;28;20195;-87
2023/06/18 05:30:16;;;;;;;4.18;3.78;;;;;;;;;;5071379;28;20272;-87
2023/06/18 05:32:43;;;;;;;4.95;4.38;;;;;;;;;;5077523;28;20262;-87
2023/06/18 05:35:11;;;;;;;5.20;4.00;;;;;;;;;;5073220;28;20213;-87
2023/06/18 05:37:40;;;;;;;4.20;3.90;;;;;;;;;;5072431;28;20250;-87
2023/06/18 05:40:08;;;;;;;4.30;3.90;;;;;;;;;;5071928;28;20191;-87
2023/06/18 05:42:35;;;;;;;4.32;3.85;;;;;;;;;;5072624;28;20202;-87
2023/06/18 05:45:03;;;;;;;4.85;3.70;;;;;;;;;;5071974;28;20205;-87
2023/06/18 05:47:30;;;;;;;4.20;3.80;;;;;;;;;;5073587;28;20202;-88
2023/06/18 05:49:57;;;;;;;4.38;3.65;;;;;;;;;;5075686;28;20201;-88
2023/06/18 05:52:24;;;;;;;4.38;3.60;;;;;;;;;;5071985;28;20217;-88
2023/06/18 05:54:53;;;;;;;4.40;4.05;;;;;;;;;;5071846;28;20211;-88
2023/06/18 05:57:20;;;;;;;5.32;4.13;;;;;;;;;;5070848;28;20202;-88
2023/06/18 05:59:48;;;;;;;4.70;4.30;;;;;;;;;;5072299;28;20198;-88
2023/06/18 06:02:15;;;;;;;3.80;3.47;;;;;;;;;;5072415;28;20232;-89
2023/06/18 06:04:43;;;;;;;4.47;3.92;;;;;;;;;;5077000;28;20217;-88
2023/06/18 06:07:10;;;;;;;4.32;3.92;;;;;;;;;;5082396;28;20211;-88
2023/06/18 06:09:37;;;;;;;4.53;4.13;;;;;;;;;;5072372;28;20211;-89
2023/06/18 06:12:08;;;;;;;5.60;4.38;;;;;;;;;;5071655;28;20229;-88
2023/06/18 06:14:35;;;;;;;4.63;4.07;;;;;;;;;;5077696;28;20275;-88
2023/06/18 06:17:02;;;;;;;4.28;3.97;;;;;;;;;;5092027;28;20303;-87
2023/06/18 06:19:29;;;;;;;4.50;4.10;;;;;;;;;;5076249;28;20203;-88
2023/06/18 06:21:56;;;;;;;4.63;3.53;;;;;;;;;;5073935;28;20217;-88
2023/06/18 06:24:25;;;;;;;5.40;3.85;;;;;;;;;;5075848;28;20191;-88
2023/06/18 06:26:52;;;;;;;4.88;4.38;;;;;;;;;;5078313;28;20199;-88
2023/06/18 06:29:21;;;;;;;4.43;3.83;;;;;;;;;;5075155;28;20265;-88
2023/06/18 06:31:48;;;;;;;4.38;3.97;;;;;;;;;;5075130;28;20299;-89
2023/06/18 06:34:16;;;;;;;3.80;3.50;;;;;;;;;;5077838;28;20195;-88
2023/06/18 06:36:45;;;;;;;4.38;3.92;;;;;;;;;;5074034;28;20253;-88
2023/06/18 06:39:13;;;;;;;4.18;3.80;;;;;;;;;;5075239;28;20226;-88
2023/06/18 06:41:40;;;;;;;4.50;4.10;;;;;;;;;;5075446;28;20218;-88
2023/06/18 06:44:09;;;;;;;3.90;3.60;;;;;;;;;;5068664;28;20206;-88
2023/06/18 06:46:37;;;;;;;3.95;3.63;;;;;;;;;;5057001;28;20215;-88
2023/06/18 06:49:07;;;;;;;6.72;4.22;;;;;;;;;;5073429;28;20183;-89
2023/06/18 06:51:35;;;;;;;4.47;4.05;;;;;;;;;;5084759;28;20297;-89
2023/06/18 06:54:02;;;;;;;4.32;3.72;;;;;;;;;;5072312;28;20232;-89
2023/06/18 06:56:29;;;;;;;4.40;4.00;;;;;;;;;;5060163;28;20253;-90
2023/06/18 06:58:57;;;;;;;5.00;4.20;;;;;;;;;;5077093;28;20198;-90
2023/06/18 07:01:24;;;;;;;4.22;3.70;;;;;;;;;;5075493;28;20199;-89
2023/06/18 07:03:53;;;;;;;4.22;3.83;;;;;;;;;;5071982;28;20198;-90
2023/06/18 07:06:21;;;;;;;4.30;3.90;;;;;;;;;;5073277;28;20205;-89
2023/06/18 07:08:48;;;;;;;4.57;4.18;;;;;;;;;;5067949;28;20256;-90
2023/06/18 07:11:16;;;;;;;4.38;3.97;;;;;;;;;;5068932;28;20197;-90
2023/06/18 07:13:43;;;;;;;4.53;4.00;;;;;;;;;;5073251;28;20225;-89
2023/06/18 07:16:10;;;;;;;4.13;3.75;;;;;;;;;;5069799;28;20238;-90
2023/06/18 07:18:37;;;;;;;3.88;3.65;;;;;;;;;;5072625;28;20237;-89
2023/06/18 07:21:06;;;;;;;4.30;3.90;;;;;;;;;;5074052;28;20199;-90
2023/06/18 07:23:33;;;;;;;4.00;3.70;;;;;;;;;;5073498;28;20285;-90
2023/06/18 07:26:01;;;;;;;4.68;4.28;;;;;;;;;;5071407;28;20230;-90
2023/06/18 07:28:29;;;;;;;4.35;3.95;;;;;;;;;;5071487;28;20270;-90
2023/06/18 07:30:56;;;;;;;3.95;3.65;;;;;;;;;;5074245;28;20195;-89
2023/06/18 07:33:23;;;;;;;5.00;4.03;;;;;;;;;;5065838;28;20207;-89
2023/06/18 07:35:50;;;;;;;3.95;3.65;;;;;;;;;;5072104;28;20229;-88
2023/06/18 07:38:19;;;;;;;3.95;3.65;;;;;;;;;;5074800;28;20202;-89
2023/06/18 07:40:47;;;;;;;3.88;3.47;;;;;;;;;;5073406;28;20195;-89
2023/06/18 07:43:14;;;;;;;4.18;3.78;;;;;;;;;;5068527;28;20269;-88
2023/06/18 07:45:41;;;;;;;4.18;3.88;;;;;;;;;;5070759;28;20211;-89
2023/06/18 07:48:09;;;;;;;3.88;3.58;;;;;;;;;;5074883;28;20201;-88
2023/06/18 07:50:37;;;;;;;4.00;3.70;;;;;;;;;;5072037;28;20199;-88
2023/06/18 07:53:04;;;;;;;4.10;3.80;;;;;;;;;;5073230;28;20195;-88
2023/06/18 07:55:33;;;;;;;4.25;3.85;;;;;;;;;;5070993;28;20202;-87
2023/06/18 07:58:00;;;;;;;4.70;4.30;;;;;;;;;;5071092;28;20285;-86
2023/06/18 08:00:27;;;;;;;4.05;3.65;;;;;;;;;;5071617;28;20226;-88
2023/06/18 08:02:55;;;;;;;5.70;4.35;;;;;;;;;;5073804;28;20203;-89
2023/06/18 08:05:22;;;;;;;4.75;4.40;;;;;;;;;;5089228;28;20222;-89
2023/06/18 08:07:50;;;;;;;4.28;3.88;;;;;;;;;;5069941;28;20198;-89
2023/06/18 08:10:17;;;;;;;4.53;4.13;;;;;;;;;;5079263;28;20206;-88
2023/06/18 08:12:46;;;;;;;4.57;4.18;;;;;;;;;;5080285;28;20215;-89
2023/06/18 08:15:14;;;;;;;4.03;3.72;;;;;;;;;;5071045;28;20202;-88
2023/06/18 08:17:42;;;;;;;4.72;4.32;;;;;;;;;;5072675;28;20214;-89
2023/06/18 08:20:09;;;;;;;4.53;4.10;;;;;;;;;;5072657;28;20230;-88
2023/06/18 08:22:38;;;;;;;4.25;3.88;;;;;;;;;;5072557;28;20199;-88
2023/06/18 08:25:06;;;;;;;5.40;3.95;;;;;;;;;;5072335;28;20195;-89
2023/06/18 08:27:35;;;;;;;4.80;3.85;;;;;;;;;;5074648;28;20206;-87
2023/06/18 08:30:08;;;;;;;6.75;4.00;;;;;;;;;;5076026;28;20223;-87
2023/06/18 08:32:39;;;;;;;4.20;3.90;;;;;;;;;;5068766;28;20207;-87
2023/06/18 08:35:07;;;;;;;4.43;3.70;;;;;;;;;;5079788;28;20202;-88
2023/06/18 08:37:34;;;;;;;4.45;4.15;;;;;;;;;;5056883;28;20226;-88
2023/06/18 08:40:02;;;;;;;4.32;3.90;;;;;;;;;;5076724;28;20199;-89
2023/06/18 08:42:29;;;;;;;4.38;3.63;;;;;;;;;;5071758;28;20199;-89
2023/06/18 08:44:57;;;;;;;5.38;3.95;;;;;;;;;;5074549;28;20217;-86
2023/06/18 08:47:28;;;;;;;3.85;3.63;;;;;;;;;;5069946;28;20199;-89
2023/06/18 08:49:59;;;;;;;6.10;3.95;;;;;;;;;;5070885;28;20257;-89
2023/06/18 08:52:29;;;;;;;4.53;3.90;;;;;;;;;;5063855;28;20283;-90
2023/06/18 08:54:59;;;;;;;4.15;3.80;;;;;;;;;;5071318;28;20199;-89
2023/06/18 08:57:29;;;;;;;4.72;4.13;;;;;;;;;;5068985;28;20224;-90
2023/06/18 08:59:57;;;;;;;4.40;4.00;;;;;;;;;;5068174;28;20205;-90
2023/06/18 09:02:27;;;;;;;4.15;3.67;;;;;;;;;;5069506;28;20195;-90
2023/06/18 09:04:54;;;;;;;5.35;3.80;;;;;;;;;;5072854;28;20278;-90
2023/06/18 09:07:22;;;;;;;4.00;3.70;;;;;;;;;;5070811;28;20201;-90
2023/06/18 09:09:51;;;;;;;4.47;4.07;;;;;;;;;;5076207;28;20194;-88
2023/06/18 09:12:18;;;;;;;5.03;4.43;;;;;;;;;;5071067;28;20198;-88
2023/06/18 09:14:46;;;;;;;4.30;4.00;;;;;;;;;;5081268;28;20273;-89
2023/06/18 09:17:13;;;;;;;4.18;3.80;;;;;;;;;;5080207;28;20218;-90
2023/06/18 09:19:42;;;;;;;4.55;4.13;;;;;;;;;;5069719;28;20203;-89
2023/06/18 09:22:16;;;;;;;4.65;4.15;;;;;;;;;;5071325;28;20211;-88
2023/06/18 09:24:44;;;;;;;4.18;3.88;;;;;;;;;;5079093;28;20198;-91
2023/06/18 09:27:11;;;;;;;4.28;3.75;;;;;;;;;;5071064;28;20229;-90
2023/06/18 09:29:40;;;;;;;3.92;3.60;;;;;;;;;;5070484;28;20222;-91
2023/06/18 09:32:08;;;;;;;5.10;3.60;;;;;;;;;;5069070;28;20213;-90
2023/06/18 09:34:35;;;;;;;4.13;3.75;;;;;;;;;;5066755;28;20202;-92
2023/06/18 09:37:05;;;;;;;3.42;3.15;;;;;;;;;;5076074;28;20226;-91
2023/06/18 09:39:33;;;;;;;4.20;3.90;;;;;;;;;;5071987;28;20202;-90
2023/06/18 09:42:05;;;;;;;4.45;3.95;;;;;;;;;;5069405;28;20304;-89
2023/06/18 09:44:32;;;;;;;5.13;4.20;;;;;;;;;;5082911;28;20205;-90
2023/06/18 09:47:01;;;;;;;5.80;3.55;;;;;;;;;;5070308;28;20191;-91
2023/06/18 09:49:29;;;;;;;5.72;4.00;;;;;;;;;;5049559;28;20203;-90
2023/06/18 09:51:56;;;;;;;3.75;3.45;;;;;;;;;;5059304;28;20190;-89
2023/06/18 09:54:38;;;;;;;3.75;3.30;;;;;;;;;;5074701;28;20206;-89
2023/06/18 09:57:06;;;;;;;5.45;4.10;;;;;;;;;;5077507;28;20302;-89
2023/06/18 09:59:33;;;;;;;4.45;4.05;;;;;;;;;;5074197;28;20209;-89
2023/06/18 10:02:01;;;;;;;3.80;3.50;;;;;;;;;;5072493;28;20222;-91
2023/06/18 10:04:28;;;;;;;3.40;3.20;;;;;;;;;;5075698;28;20317;-90
2023/06/18 10:06:58;;;;;;;5.57;4.00;;;;;;;;;;5074799;28;20206;-91
2023/06/18 10:09:30;;;;;;;4.00;3.70;;;;;;;;;;5072002;28;20207;-94
2023/06/18 10:11:58;;;;;;;4.05;3.75;;;;;;;;;;5072219;28;20249;-91
2023/06/18 10:14:28;;;;;;;3.78;3.50;;;;;;;;;;5073434;28;20207;-92
2023/06/18 10:16:59;;;;;;;4.40;4.00;;;;;;;;;;5063182;28;20225;-91
2023/06/18 10:19:28;;;;;;;3.80;3.38;;;;;;;;;;5076244;28;20264;-90
2023/06/18 10:21:58;;;;;;;3.92;3.42;;;;;;;;;;5074447;28;20262;-91
2023/06/18 10:24:28;;;;;;;4.63;3.67;;;;;;;;;;5072857;28;20207;-90
2023/06/18 10:26:57;;;;;;;4.03;3.55;;;;;;;;;;5078157;28;20205;-92
2023/06/18 10:29:25;;;;;;;6.03;3.60;;;;;;;;;;5072670;28;20242;-92
2023/06/18 10:31:53;;;;;;;4.38;3.97;;;;;;;;;;5079311;28;20243;-92
2023/06/18 10:34:21;;;;;;;4.68;3.50;;;;;;;;;;5072886;28;20190;-91
2023/06/18 10:36:49;;;;;;;3.80;3.50;;;;;;;;;;5073695;28;20302;-92
2023/06/18 10:39:16;;;;;;;4.38;3.92;;;;;;;;;;5074598;28;20256;-90
2023/06/18 10:41:46;;;;;;;3.85;3.55;;;;;;;;;;5077197;28;20281;-90
2023/06/18 10:44:15;;;;;;;4.45;4.05;;;;;;;;;;5074637;28;20217;-91
2023/06/18 10:46:42;;;;;;;4.55;3.67;;;;;;;;;;5079603;28;20289;-90
2023/06/18 10:49:16;;;;;;;5.82;4.00;;;;;;;;;;5076006;28;20203;-90
2023/06/18 10:51:51;;;;;;;4.30;3.90;;;;;;;;;;5075824;28;20285;-90
2023/06/18 10:54:25;;;;;;;4.13;3.72;;;;;;;;;;5052175;28;20217;-89
2023/06/18 10:56:54;;;;;;;4.13;3.80;;;;;;;;;;5075479;28;20304;-90
2023/06/18 10:59:39;;;;;;;3.67;3.33;;;;;;;;;;5075807;28;20206;-90
2023/06/18 11:02:08;;;;;;;4.18;3.83;;;;;;;;;;5081364;28;20276;-88
2023/06/18 11:04:36;;;;;;;4.20;3.80;;;;;;;;;;5081250;28;20290;-89
2023/06/18 11:07:13;;;;;;;4.43;3.80;;;;;;;;;;5073800;28;20209;-90
2023/06/18 11:09:48;;;;;;;4.03;3.58;;;;;;;;;;5083735;28;20194;-90
2023/06/18 11:12:22;;;;;;;3.70;3.50;;;;;;;;;;5063323;28;20207;-92
2023/06/18 11:15:08;;;;;;;4.07;3.78;;;;;;;;;;5063802;28;20202;-90
2023/06/18 11:17:37;;;;;;;4.00;3.70;;;;;;;;;;5074717;28;20309;-90
2023/06/18 11:20:05;;;;;;;3.80;3.50;;;;;;;;;;5076729;28;20206;-90
2023/06/18 11:22:32;;;;;;;3.90;3.60;;;;;;;;;;5074887;28;20267;-90
2023/06/18 11:25:00;;;;;;;4.60;4.20;;;;;;;;;;5075162;28;20217;-90
2023/06/18 11:27:30;;;;;;;4.15;3.65;;;;;;;;;;5078226;28;20274;-90
2023/06/18 11:29:57;;;;;;;4.38;3.85;;;;;;;;;;5075024;28;20313;-90
2023/06/18 11:32:25;;;;;;;4.78;4.30;;;;;;;;;;5085676;28;20208;-91
2023/06/18 11:34:54;;;;;;;4.25;3.80;;;;;;;;;;5074170;28;20202;-89
2023/06/18 11:37:22;;;;;;;5.25;4.18;;;;;;;;;;5076073;28;20218;-91
2023/06/18 11:39:50;;;;;;;4.70;3.78;;;;;;;;;;5066862;28;20283;-91
2023/06/18 11:42:19;;;;;;;4.35;4.05;;;;;;;;;;5075415;28;20202;-90
2023/06/18 11:44:47;;;;;;;3.60;3.30;;;;;;;;;;5074127;28;20213;-90
2023/06/18 11:47:15;;;;;;;4.05;3.63;;;;;;;;;;5074060;28;20252;-90
2023/06/18 11:49:43;;;;;;;4.07;3.70;;;;;;;;;;5073106;28;20190;-91
2023/06/18 11:52:12;;;;;;;3.88;3.58;;;;;;;;;;5074451;28;20202;-91
2023/06/18 11:54:40;;;;;;;4.03;3.72;;;;;;;;;;5079354;28;20234;-91
2023/06/18 11:57:08;;;;;;;5.90;3.53;;;;;;;;;;5073525;28;20305;-90
2023/06/18 11:59:36;;;;;;;5.20;3.70;;;;;;;;;;5084141;28;20229;-91
2023/06/18 12:02:13;;;;;;;3.92;3.63;;;;;;;;;;5069768;28;20191;-90
2023/06/18 12:04:41;;;;;;;4.03;3.72;;;;;;;;;;5088772;28;20197;-91
2023/06/18 12:07:08;;;;;;;4.13;3.83;;;;;;;;;;5074047;28;20230;-91
2023/06/18 12:09:38;;;;;;;4.03;3.72;;;;;;;;;;5072970;28;20294;-91
2023/06/18 12:12:14;;;;;;;4.40;4.10;;;;;;;;;;5072976;28;20289;-92
2023/06/18 12:14:43;;;;;;;4.32;3.72;;;;;;;;;;5070474;28;20262;-91
2023/06/18 12:17:18;;;;;;;4.88;3.83;;;;;;;;;;5068695;28;20244;-90
2023/06/18 12:19:49;;;;;;;4.03;3.72;;;;;;;;;;5037017;28;20199;-90
2023/06/18 12:22:17;;;;;;;4.32;4.03;;;;;;;;;;5065495;28;20202;-91
2023/06/18 12:24:46;;;;;;;4.22;3.90;;;;;;;;;;5082074;28;20206;-91
2023/06/18 12:27:14;;;;;;;4.03;3.72;;;;;;;;;;5073476;28;20294;-91
2023/06/18 12:29:42;;;;;;;5.43;3.75;;;;;;;;;;5076219;28;20226;-90
2023/06/18 12:32:11;;;;;;;4.35;3.95;;;;;;;;;;5076347;28;20199;-90
2023/06/18 12:34:39;;;;;;;4.53;4.13;;;;;;;;;;5069140;28;20203;-90
2023/06/18 12:37:06;;;;;;;4.75;3.97;;;;;;;;;;5072839;28;20214;-90
2023/06/18 12:39:35;;;;;;;4.38;3.97;;;;;;;;;;5073077;28;20248;-90
2023/06/18 12:42:03;;;;;;;4.47;3.78;;;;;;;;;;5072179;28;20268;-91
2023/06/18 12:44:31;;;;;;;4.40;4.10;;;;;;;;;;5072929;28;20221;-90
2023/06/18 12:46:59;;;;;;;3.92;3.65;;;;;;;;;;5055898;28;20202;-90
2023/06/18 12:49:26;;;;;;;6.38;4.00;;;;;;;;;;5073979;28;20228;-90
2023/06/18 12:51:54;;;;;;;4.88;4.03;;;;;;;;;;5071488;28;20304;-90
2023/06/18 12:54:22;;;;;;;4.47;3.92;;;;;;;;;;5079396;28;20297;-90
2023/06/18 12:56:50;;;;;;;4.50;4.20;;;;;;;;;;5062386;28;20187;-90
2023/06/18 12:59:20;;;;;;;4.78;4.18;;;;;;;;;;5073316;28;20301;-90
2023/06/18 13:01:48;;;;;;;4.97;4.30;;;;;;;;;;5072581;28;20205;-90
2023/06/18 13:04:19;;;;;;;4.00;3.70;;;;;;;;;;5073437;28;20197;-90
2023/06/18 13:06:46;;;;;;;4.90;4.05;;;;;;;;;;5054087;28;20222;-90
2023/06/18 13:09:14;;;;;;;5.22;4.25;;;;;;;;;;5071956;28;20205;-92
2023/06/18 13:11:41;;;;;;;4.47;4.18;;;;;;;;;;5070092;28;20286;-90
2023/06/18 13:14:08;;;;;;;4.22;3.92;;;;;;;;;;5072769;28;20199;-90
2023/06/18 13:16:37;;;;;;;5.07;4.13;;;;;;;;;;5080865;28;20282;-90
2023/06/18 13:19:04;;;;;;;4.60;4.20;;;;;;;;;;5076398;28;20219;-90
2023/06/18 13:21:33;;;;;;;4.22;3.85;;;;;;;;;;5071117;28;20265;-90
2023/06/18 13:24:00;;;;;;;4.57;4.18;;;;;;;;;;5077296;28;20202;-90
2023/06/18 13:26:29;;;;;;;5.18;3.83;;;;;;;;;;5073914;28;20202;-92
2023/06/18 13:28:56;;;;;;;4.70;3.95;;;;;;;;;;5071985;28;20237;-90
2023/06/18 13:31:24;;;;;;;6.47;4.15;;;;;;;;;;5077792;28;20201;-90
2023/06/18 13:33:53;;;;;;;4.70;4.30;;;;;;;;;;5085405;28;20194;-90
2023/06/18 13:36:21;;;;;;;4.57;4.18;;;;;;;;;;5077462;28;20232;-90
2023/06/18 13:38:48;;;;;;;4.30;3.78;;;;;;;;;;5055686;28;20210;-90
2023/06/18 13:41:15;;;;;;;3.88;3.58;;;;;;;;;;5082292;28;20198;-90
2023/06/18 13:43:43;;;;;;;4.25;3.95;;;;;;;;;;5076032;28;20310;-90
2023/06/18 13:46:10;;;;;;;4.43;4.13;;;;;;;;;;5074153;28;20223;-91
2023/06/18 13:48:37;;;;;;;4.18;3.70;;;;;;;;;;5066659;28;20297;-91
2023/06/18 13:51:06;;;;;;;4.38;3.97;;;;;;;;;;5076975;28;20198;-91
2023/06/18 13:53:34;;;;;;;3.65;3.35;;;;;;;;;;5078293;28;20202;-91
2023/06/18 13:56:02;;;;;;;4.78;4.20;;;;;;;;;;5080034;28;20209;-91
2023/06/18 13:58:30;;;;;;;4.05;3.70;;;;;;;;;;5077603;28;20215;-91
2023/06/18 14:00:57;;;;;;;4.47;4.18;;;;;;;;;;5077650;28;20218;-91
2023/06/18 14:03:25;;;;;;;4.70;4.30;;;;;;;;;;5071535;28;20282;-91
2023/06/18 14:05:52;;;;;;;4.70;4.30;;;;;;;;;;5076485;28;20284;-91
2023/06/18 14:08:21;;;;;;;4.55;4.20;;;;;;;;;;5075732;28;20223;-91
2023/06/18 14:10:49;;;;;;;4.80;4.20;;;;;;;;;;5077143;28;20289;-90
2023/06/18 14:13:16;;;;;;;4.50;4.20;;;;;;;;;;5070346;28;20283;-91
2023/06/18 14:15:44;;;;;;;6.13;5.43;;;;;;;;;;5075660;28;20195;-91
2023/06/18 14:18:11;;;;;;;11.00;9.98;;;;;;;;;;5074857;28;20285;-91
2023/06/18 14:20:38;;;;;;;4.50;4.13;;;;;;;;;;5076300;28;20289;-90
2023/06/18 14:23:06;;;;;;;4.40;4.10;;;;;;;;;;5075615;28;20238;-91
2023/06/18 14:25:35;;;;;;;5.68;4.28;;;;;;;;;;5075057;28;20199;-91
2023/06/18 14:28:02;;;;;;;5.53;4.50;;;;;;;;;;5086134;28;20210;-91
2023/06/18 14:30:30;;;;;;;5.38;4.32;;;;;;;;;;5076446;28;20309;-91
2023/06/18 14:32:57;;;;;;;4.85;4.45;;;;;;;;;;5074930;28;20202;-90
2023/06/18 14:35:24;;;;;;;4.65;4.35;;;;;;;;;;5075151;28;20209;-92
2023/06/18 14:37:52;;;;;;;5.68;4.35;;;;;;;;;;5078273;28;20227;-90
2023/06/18 14:40:19;;;;;;;4.07;3.78;;;;;;;;;;5084009;28;20200;-91
2023/06/18 14:42:48;;;;;;;6.07;4.72;;;;;;;;;;5076296;28;20201;-90
2023/06/18 14:45:16;;;;;;;5.05;4.55;;;;;;;;;;5073375;28;20227;-90
2023/06/18 14:47:44;;;;;;;4.18;3.88;;;;;;;;;;5074650;28;20204;-90
2023/06/18 14:50:11;;;;;;;4.32;3.92;;;;;;;;;;5076731;28;20203;-90